Emerald Coast — WDC9127 — position and weather

sailwx.info

Track history (hours):
 
Tides and Currents Weather Stations Pressure Air Temp Water Temp Dewpoint Dewpoint Depression Visibility Wind Speed Wind Dir Waves Ship Positions

Emerald Coast

Owner: Dann Marine Towing, LC, Chesapeake City, MD. More information available from US FCC via Universal Licensing System and Coast Guard Vessel Documentation Center.

Last reported at 2014-Dec-21 01:16 UTC. Time now 2014-Dec-21 01:54 UTC.
Position N 41°12' W 073°57'.

; draft 3 m.

Type: Towing. MMSI: 367097920.

Date/timePositionNaut miles runAvg speedWind from/ knotsBaromVisibWave heightAir tempDewpointWater temp
2014-Dec-21 01:16N 41°12' W 073°57'6 5.9
2014-Dec-21 00:19N 41°07' W 073°53'10 5.9
2014-Dec-20 22:33N 40°57' W 073°54'5 4.7
2014-Dec-20 21:28N 40°52' W 073°56'4 3.8
2014-Dec-20 20:31N 40°49' W 073°58'3 3.2
2014-Dec-20 19:33N 40°46' W 074°00'3 3.3
2014-Dec-20 18:33N 40°43' W 074°01'1 1.4
2014-Dec-20 17:33N 40°41' W 074°02'2 1.5
2014-Dec-20 16:33N 40°40' W 074°03'3 3.0
2014-Dec-20 15:33N 40°39' W 074°07'4 3.7
2014-Dec-20 14:32N 40°38' W 074°12'3 0.3
2014-Dec-20 06:07N 40°36' W 074°12'3 4.8
2014-Dec-20 05:30N 40°39' W 074°11'4 4.6
2014-Dec-20 04:33N 40°39' W 074°06'2 2.0
2014-Dec-20 03:33N 40°39' W 074°08'4 3.8
2014-Dec-20 02:32N 40°36' W 074°12'4 0.9
2014-Dec-19 22:07N 40°33' W 074°15'0 0.0
2014-Dec-19 21:28N 40°33' W 074°15'0 0.0
2014-Dec-19 20:25N 40°33' W 074°15'0 0.0
2014-Dec-19 19:21N 40°33' W 074°15'0 0.0
2014-Dec-19 18:27N 40°33' W 074°15'0 0.0
2014-Dec-19 17:25N 40°33' W 074°15'0 0.0
2014-Dec-19 16:19N 40°33' W 074°15'0 0.0
2014-Dec-19 14:04N 40°33' W 074°15'0 0.0
2014-Dec-19 13:32N 40°33' W 074°15'0 0.0
2014-Dec-19 12:33N 40°33' W 074°15'1 0.5
2014-Dec-19 11:15N 40°33' W 074°14'5 4.7
2014-Dec-19 10:10N 40°38' W 074°12'4 5.9
2014-Dec-19 09:33N 40°39' W 074°07'4 3.7
2014-Dec-19 08:33N 40°40' W 074°03'4 0.5
2014-Dec-19 01:27N 40°39' W 074°07'3 3.7
2014-Dec-19 00:33N 40°38' W 074°12'0 0.0
2014-Dec-18 23:33N 40°38' W 074°12'0 0.0
2014-Dec-18 22:33N 40°38' W 074°12'3 2.8
2014-Dec-18 21:33N 40°39' W 074°08'5 4.7
2014-Dec-18 20:33N 40°41' W 074°03'8 7.4
2014-Dec-18 19:32N 40°48' W 073°59'4 0.2
2014-Dec-17 18:33N 40°51' W 073°57'3 3.4
2014-Dec-17 17:33N 40°48' W 073°59'3 2.8
2014-Dec-17 16:33N 40°46' W 074°01'3 2.9
2014-Dec-17 15:33N 40°43' W 074°02'3 3.5
2014-Dec-17 14:33N 40°40' W 074°04'6 5.6
2014-Dec-17 13:32N 40°39' W 074°11'1 0.6
2014-Dec-17 11:32N 40°38' W 074°12'4 0.8
2014-Dec-17 06:32N 40°39' W 074°07'0 0.0
2014-Dec-17 05:32N 40°39' W 074°07'5 5.3
2014-Dec-17 04:33N 40°40' W 074°00'0 0.0
2014-Dec-17 03:33N 40°40' W 074°00'5 5.1
2014-Dec-17 02:33N 40°39' W 074°07'3 2.6
2014-Dec-17 01:33N 40°41' W 074°09'2 2.3
2014-Dec-17 00:33N 40°39' W 074°08'2 2.2
2014-Dec-16 23:33N 40°39' W 074°11'3 2.9
2014-Dec-16 22:33N 40°36' W 074°12'4 4.5
2014-Dec-16 21:33N 40°39' W 074°08'4 3.6
2014-Dec-16 20:33N 40°40' W 074°03'2 2.4
2014-Dec-16 19:33N 40°39' W 074°06'4 3.5
2014-Dec-16 18:33N 40°41' W 074°10'1 0.6
2014-Dec-16 17:33N 40°41' W 074°09'1 0.8
2014-Dec-16 16:33N 40°40' W 074°08'1 1.5
2014-Dec-16 15:33N 40°39' W 074°08'2 1.7
2014-Dec-16 14:33N 40°39' W 074°06'1 0.7
2014-Dec-16 13:33N 40°39' W 074°07'0 0.1
2014-Dec-16 11:14N 40°38' W 074°07'0 0.0
2014-Dec-16 07:06N 40°38' W 074°07'0 0.0
2014-Dec-16 05:32N 40°39' W 074°07'2 2.5
2014-Dec-16 04:33N 40°40' W 074°05'1 1.2
2014-Dec-16 03:32N 40°39' W 074°05'2 2.2
2014-Dec-16 02:33N 40°40' W 074°03'4 0.4
2014-Dec-15 16:16N 40°38' W 074°07'0 0.3
2014-Dec-15 14:33N 40°39' W 074°07'2 2.0
2014-Dec-15 13:33N 40°40' W 074°05'2 1.6
2014-Dec-15 12:33N 40°39' W 074°06'1 0.8
2014-Dec-15 11:33N 40°39' W 074°07'0 0.0
2014-Dec-15 10:33N 40°39' W 074°07'0 0.0
2014-Dec-15 09:29N 40°39' W 074°07'0 0.0
2014-Dec-15 07:28N 40°39' W 074°07'0 0.0
2014-Dec-15 06:31N 40°39' W 074°07'0 0.0
2014-Dec-15 05:31N 40°39' W 074°07'0 0.0
2014-Dec-15 04:33N 40°39' W 074°07'0 0.0
2014-Dec-15 03:33N 40°39' W 074°07'1 0.2
2014-Dec-15 00:33N 40°39' W 074°08'3 2.5
2014-Dec-14 23:32N 40°39' W 074°11'3 3.3
2014-Dec-14 22:33N 40°39' W 074°07'1 0.8
2014-Dec-14 21:33N 40°39' W 074°06'0 0.3
2014-Dec-14 20:33N 40°39' W 074°06'4 4.1
2014-Dec-14 19:33N 40°40' W 074°01'0 0.1
2014-Dec-14 18:33N 40°40' W 074°01'0 0.0
2014-Dec-14 17:33N 40°40' W 074°00'0 0.0
2014-Dec-14 16:33N 40°40' W 074°00'0 0.0
2014-Dec-14 15:33N 40°40' W 074°00'0 0.1
2014-Dec-14 14:33N 40°40' W 074°00'0 0.1
2014-Dec-14 13:33N 40°40' W 074°00'0 0.5
2014-Dec-14 12:33N 40°40' W 074°01'0 0.2
2014-Dec-14 11:33N 40°40' W 074°01'6 5.8
2014-Dec-14 10:33N 40°39' W 074°08'4 3.5
2014-Dec-14 09:28N 40°36' W 074°12'2 1.5
2014-Dec-14 08:14N 40°38' W 074°12'4 0.7
2014-Dec-14 03:07N 40°39' W 074°07'0 0.0
2014-Dec-13 23:33N 40°39' W 074°07'4 2.5
2014-Dec-13 22:05N 40°38' W 074°12'2 4.0
2014-Dec-13 21:33N 40°39' W 074°09'5 4.7
2014-Dec-13 20:33N 40°40' W 074°03'7 7.1
2014-Dec-13 19:33N 40°46' W 074°00'5 0.2
2014-Dec-12 17:31N 40°51' W 073°57'6 6.4
2014-Dec-12 16:33N 40°45' W 074°01'6 5.5
2014-Dec-12 15:33N 40°40' W 074°03'5 4.8
2014-Dec-12 14:33N 40°38' W 074°09'4 3.9
2014-Dec-12 13:24N 40°35' W 074°13'3 4.1
2014-Dec-12 12:33N 40°38' W 074°12'3 0.3
2014-Dec-12 02:21N 40°38' W 074°07'0 0.3
2014-Dec-12 01:33N 40°39' W 074°07'3 2.1
2014-Dec-12 00:05N 40°41' W 074°09'0 0.0
2014-Dec-11 23:13N 40°41' W 074°09'0 0.0
2014-Dec-11 22:19N 40°41' W 074°09'0 0.0
2014-Dec-11 21:33N 40°41' W 074°09'0 0.4
2014-Dec-11 20:33N 40°41' W 074°09'3 2.9
2014-Dec-11 19:32N 40°39' W 074°07'0 0.0
2014-Dec-11 18:33N 40°39' W 074°07'0 0.0
2014-Dec-11 17:33N 40°39' W 074°07'0 0.0
2014-Dec-11 16:32N 40°39' W 074°07'0 0.0
2014-Dec-11 15:33N 40°39' W 074°07'1 0.9
2014-Dec-11 14:33N 40°39' W 074°08'3 2.6
2014-Dec-11 13:33N 40°41' W 074°09'0 0.2
2014-Dec-11 12:33N 40°41' W 074°09'0 0.0
2014-Dec-11 11:33N 40°41' W 074°09'0 0.0
2014-Dec-11 10:33N 40°41' W 074°09'0 0.0
2014-Dec-11 09:33N 40°41' W 074°09'0 0.0
2014-Dec-11 08:33N 40°41' W 074°09'0 0.0
2014-Dec-11 07:33N 40°41' W 074°09'0 0.0
2014-Dec-11 06:33N 40°41' W 074°09'0 0.0
2014-Dec-11 05:33N 40°41' W 074°09'0 0.0
2014-Dec-11 04:33N 40°41' W 074°09'0 0.0
2014-Dec-11 03:33N 40°41' W 074°09'0 0.0
2014-Dec-11 02:33N 40°41' W 074°09'1 1.2
2014-Dec-11 01:33N 40°40' W 074°08'  
Track history (hours):
 
Tides and Currents Weather Stations Pressure Air Temp Water Temp Dewpoint Dewpoint Depression Visibility Wind Speed Wind Dir Waves Ship Positions

Emerald Coast

Owner: Dann Marine Towing, LC, Chesapeake City, MD. More information available from US FCC via Universal Licensing System and Coast Guard Vessel Documentation Center.

Last reported at 2014-Dec-21 01:16 UTC. Time now 2014-Dec-21 01:54 UTC.
Position N 41°12' W 073°57'.

; draft 3 m.

Type: Towing. MMSI: 367097920.

Date/timePositionNaut miles runAvg speedWind from/ knotsBaromVisibWave heightAir tempDewpointWater temp
2014-Dec-21 01:16N 41°12' W 073°57'6 5.9
2014-Dec-21 00:19N 41°07' W 073°53'10 5.9
2014-Dec-20 22:33N 40°57' W 073°54'5 4.7
2014-Dec-20 21:28N 40°52' W 073°56'4 3.8
2014-Dec-20 20:31N 40°49' W 073°58'3 3.2
2014-Dec-20 19:33N 40°46' W 074°00'3 3.3
2014-Dec-20 18:33N 40°43' W 074°01'1 1.4
2014-Dec-20 17:33N 40°41' W 074°02'2 1.5
2014-Dec-20 16:33N 40°40' W 074°03'3 3.0
2014-Dec-20 15:33N 40°39' W 074°07'4 3.7
2014-Dec-20 14:32N 40°38' W 074°12'3 0.3
2014-Dec-20 06:07N 40°36' W 074°12'3 4.8
2014-Dec-20 05:30N 40°39' W 074°11'4 4.6
2014-Dec-20 04:33N 40°39' W 074°06'2 2.0
2014-Dec-20 03:33N 40°39' W 074°08'4 3.8
2014-Dec-20 02:32N 40°36' W 074°12'4 0.9
2014-Dec-19 22:07N 40°33' W 074°15'0 0.0
2014-Dec-19 21:28N 40°33' W 074°15'0 0.0
2014-Dec-19 20:25N 40°33' W 074°15'0 0.0
2014-Dec-19 19:21N 40°33' W 074°15'0 0.0
2014-Dec-19 18:27N 40°33' W 074°15'0 0.0
2014-Dec-19 17:25N 40°33' W 074°15'0 0.0
2014-Dec-19 16:19N 40°33' W 074°15'0 0.0
2014-Dec-19 14:04N 40°33' W 074°15'0 0.0
2014-Dec-19 13:32N 40°33' W 074°15'0 0.0
2014-Dec-19 12:33N 40°33' W 074°15'1 0.5
2014-Dec-19 11:15N 40°33' W 074°14'5 4.7
2014-Dec-19 10:10N 40°38' W 074°12'4 5.9
2014-Dec-19 09:33N 40°39' W 074°07'4 3.7
2014-Dec-19 08:33N 40°40' W 074°03'4 0.5
2014-Dec-19 01:27N 40°39' W 074°07'3 3.7
2014-Dec-19 00:33N 40°38' W 074°12'0 0.0
2014-Dec-18 23:33N 40°38' W 074°12'0 0.0
2014-Dec-18 22:33N 40°38' W 074°12'3 2.8
2014-Dec-18 21:33N 40°39' W 074°08'5 4.7
2014-Dec-18 20:33N 40°41' W 074°03'8 7.4
2014-Dec-18 19:32N 40°48' W 073°59'4 0.2
2014-Dec-17 18:33N 40°51' W 073°57'3 3.4
2014-Dec-17 17:33N 40°48' W 073°59'3 2.8
2014-Dec-17 16:33N 40°46' W 074°01'3 2.9
2014-Dec-17 15:33N 40°43' W 074°02'3 3.5
2014-Dec-17 14:33N 40°40' W 074°04'6 5.6
2014-Dec-17 13:32N 40°39' W 074°11'1 0.6
2014-Dec-17 11:32N 40°38' W 074°12'4 0.8
2014-Dec-17 06:32N 40°39' W 074°07'0 0.0
2014-Dec-17 05:32N 40°39' W 074°07'5 5.3
2014-Dec-17 04:33N 40°40' W 074°00'0 0.0
2014-Dec-17 03:33N 40°40' W 074°00'5 5.1
2014-Dec-17 02:33N 40°39' W 074°07'3 2.6
2014-Dec-17 01:33N 40°41' W 074°09'2 2.3
2014-Dec-17 00:33N 40°39' W 074°08'2 2.2
2014-Dec-16 23:33N 40°39' W 074°11'3 2.9
2014-Dec-16 22:33N 40°36' W 074°12'4 4.5
2014-Dec-16 21:33N 40°39' W 074°08'4 3.6
2014-Dec-16 20:33N 40°40' W 074°03'2 2.4
2014-Dec-16 19:33N 40°39' W 074°06'4 3.5
2014-Dec-16 18:33N 40°41' W 074°10'1 0.6
2014-Dec-16 17:33N 40°41' W 074°09'1 0.8
2014-Dec-16 16:33N 40°40' W 074°08'1 1.5
2014-Dec-16 15:33N 40°39' W 074°08'2 1.7
2014-Dec-16 14:33N 40°39' W 074°06'1 0.7
2014-Dec-16 13:33N 40°39' W 074°07'0 0.1
2014-Dec-16 11:14N 40°38' W 074°07'0 0.0
2014-Dec-16 07:06N 40°38' W 074°07'0 0.0
2014-Dec-16 05:32N 40°39' W 074°07'2 2.5
2014-Dec-16 04:33N 40°40' W 074°05'1 1.2
2014-Dec-16 03:32N 40°39' W 074°05'2 2.2
2014-Dec-16 02:33N 40°40' W 074°03'4 0.4
2014-Dec-15 16:16N 40°38' W 074°07'0 0.3
2014-Dec-15 14:33N 40°39' W 074°07'2 2.0
2014-Dec-15 13:33N 40°40' W 074°05'2 1.6
2014-Dec-15 12:33N 40°39' W 074°06'1 0.8
2014-Dec-15 11:33N 40°39' W 074°07'0 0.0
2014-Dec-15 10:33N 40°39' W 074°07'0 0.0
2014-Dec-15 09:29N 40°39' W 074°07'0 0.0
2014-Dec-15 07:28N 40°39' W 074°07'0 0.0
2014-Dec-15 06:31N 40°39' W 074°07'0 0.0
2014-Dec-15 05:31N 40°39' W 074°07'0 0.0
2014-Dec-15 04:33N 40°39' W 074°07'0 0.0
2014-Dec-15 03:33N 40°39' W 074°07'1 0.2
2014-Dec-15 00:33N 40°39' W 074°08'3 2.5
2014-Dec-14 23:32N 40°39' W 074°11'3 3.3
2014-Dec-14 22:33N 40°39' W 074°07'1 0.8
2014-Dec-14 21:33N 40°39' W 074°06'0 0.3
2014-Dec-14 20:33N 40°39' W 074°06'4 4.1
2014-Dec-14 19:33N 40°40' W 074°01'0 0.1
2014-Dec-14 18:33N 40°40' W 074°01'0 0.0
2014-Dec-14 17:33N 40°40' W 074°00'0 0.0
2014-Dec-14 16:33N 40°40' W 074°00'0 0.0
2014-Dec-14 15:33N 40°40' W 074°00'0 0.1
2014-Dec-14 14:33N 40°40' W 074°00'0 0.1
2014-Dec-14 13:33N 40°40' W 074°00'0 0.5
2014-Dec-14 12:33N 40°40' W 074°01'0 0.2
2014-Dec-14 11:33N 40°40' W 074°01'6 5.8
2014-Dec-14 10:33N 40°39' W 074°08'4 3.5
2014-Dec-14 09:28N 40°36' W 074°12'2 1.5
2014-Dec-14 08:14N 40°38' W 074°12'4 0.7
2014-Dec-14 03:07N 40°39' W 074°07'0 0.0
2014-Dec-13 23:33N 40°39' W 074°07'4 2.5
2014-Dec-13 22:05N 40°38' W 074°12'2 4.0
2014-Dec-13 21:33N 40°39' W 074°09'5 4.7
2014-Dec-13 20:33N 40°40' W 074°03'7 7.1
2014-Dec-13 19:33N 40°46' W 074°00'5 0.2
2014-Dec-12 17:31N 40°51' W 073°57'6 6.4
2014-Dec-12 16:33N 40°45' W 074°01'6 5.5
2014-Dec-12 15:33N 40°40' W 074°03'5 4.8
2014-Dec-12 14:33N 40°38' W 074°09'4 3.9
2014-Dec-12 13:24N 40°35' W 074°13'3 4.1
2014-Dec-12 12:33N 40°38' W 074°12'3 0.3
2014-Dec-12 02:21N 40°38' W 074°07'0 0.3
2014-Dec-12 01:33N 40°39' W 074°07'3 2.1
2014-Dec-12 00:05N 40°41' W 074°09'0 0.0
2014-Dec-11 23:13N 40°41' W 074°09'0 0.0
2014-Dec-11 22:19N 40°41' W 074°09'0 0.0
2014-Dec-11 21:33N 40°41' W 074°09'0 0.4
2014-Dec-11 20:33N 40°41' W 074°09'3 2.9
2014-Dec-11 19:32N 40°39' W 074°07'0 0.0
2014-Dec-11 18:33N 40°39' W 074°07'0 0.0
2014-Dec-11 17:33N 40°39' W 074°07'0 0.0
2014-Dec-11 16:32N 40°39' W 074°07'0 0.0
2014-Dec-11 15:33N 40°39' W 074°07'1 0.9
2014-Dec-11 14:33N 40°39' W 074°08'3 2.6
2014-Dec-11 13:33N 40°41' W 074°09'0 0.2
2014-Dec-11 12:33N 40°41' W 074°09'0 0.0
2014-Dec-11 11:33N 40°41' W 074°09'0 0.0
2014-Dec-11 10:33N 40°41' W 074°09'0 0.0
2014-Dec-11 09:33N 40°41' W 074°09'0 0.0
2014-Dec-11 08:33N 40°41' W 074°09'0 0.0
2014-Dec-11 07:33N 40°41' W 074°09'0 0.0
2014-Dec-11 06:33N 40°41' W 074°09'0 0.0
2014-Dec-11 05:33N 40°41' W 074°09'0 0.0
2014-Dec-11 04:33N 40°41' W 074°09'0 0.0
2014-Dec-11 03:33N 40°41' W 074°09'0 0.0
2014-Dec-11 02:33N 40°41' W 074°09'1 1.2
2014-Dec-11 01:33N 40°40' W 074°08'  

Dump ship's entire track history